Time;durP1;ratioP1;P1;durP2;ratioP2;P2;SDS_P1;SDS_P2;PMS_P1;PMS_P2;Temp;Humidity;BMP_temperature;BMP_pressure;BME280_temperature;BME280_humidity;BME280_pressure;Samples;Min_cycle;Max_cycle;Signal;HPM_P1;HPM_P2
2022/10/14 00:01:21;;;;;;;7.73;6.30;;;24.00;69.00;;;;;;4904951;29;20480;-84
2022/10/14 00:03:50;;;;;;;7.20;6.50;;;24.00;69.00;;;;;;4883556;29;20464;-83
2022/10/14 00:06:22;;;;;;;6.70;6.10;;;24.00;69.00;;;;;;4898483;29;20464;-84
2022/10/14 00:08:52;;;;;;;6.33;5.77;;;24.00;69.00;;;;;;4897829;29;20468;-84
2022/10/14 00:11:22;;;;;;;7.03;6.43;;;24.00;69.00;;;;;;4898239;29;20476;-84
2022/10/14 00:13:53;;;;;;;6.50;5.90;;;24.00;69.00;;;;;;4897912;29;20469;-84
2022/10/14 00:16:24;;;;;;;11.80;5.90;;;24.00;69.00;;;;;;4894074;29;20460;-83
2022/10/14 00:18:52;;;;;;;6.20;5.60;;;23.90;69.00;;;;;;4896226;29;20472;-83
2022/10/14 00:21:20;;;;;;;6.17;5.20;;;24.00;69.00;;;;;;4897319;29;20506;-84
2022/10/14 00:23:48;;;;;;;5.83;5.33;;;23.90;69.00;;;;;;4899009;29;20443;-83
2022/10/14 00:26:21;;;;;;;5.83;5.33;;;24.00;69.00;;;;;;4897345;29;20466;-84
2022/10/14 00:28:49;;;;;;;6.80;6.20;;;23.90;69.00;;;;;;4880355;29;20923;-83
2022/10/14 00:31:18;;;;;;;6.23;5.73;;;23.90;69.00;;;;;;4888960;29;20549;-83
2022/10/14 00:33:48;;;;;;;6.20;5.60;;;23.90;69.00;;;;;;4900200;29;20494;-84
2022/10/14 00:36:19;;;;;;;7.23;6.33;;;23.90;69.00;;;;;;4898721;29;20462;-84
2022/10/14 00:38:48;;;;;;;5.77;5.17;;;23.90;69.00;;;;;;4900041;29;20449;-84
2022/10/14 00:41:20;;;;;;;6.10;5.50;;;23.90;69.00;;;;;;4897867;29;20489;-84
2022/10/14 00:43:57;;;;;;;5.83;5.40;;;23.90;69.00;;;;;;4903497;29;20478;-83
2022/10/14 00:46:27;;;;;;;7.40;5.53;;;23.90;69.10;;;;;;4899822;29;20910;-84
2022/10/14 00:49:05;;;;;;;6.27;5.77;;;23.90;69.00;;;;;;4898625;29;20554;-83
2022/10/14 00:51:35;;;;;;;5.90;5.40;;;23.90;69.00;;;;;;4899909;29;20784;-82
2022/10/14 00:54:04;;;;;;;5.60;5.20;;;23.90;69.00;;;;;;4889046;29;20502;-83
2022/10/14 00:56:34;;;;;;;6.27;5.77;;;23.90;69.00;;;;;;4889559;29;20484;-84
2022/10/14 00:59:05;;;;;;;5.83;5.33;;;23.90;69.10;;;;;;4903431;29;21114;-83
2022/10/14 01:01:33;;;;;;;5.60;5.20;;;23.90;69.00;;;;;;4899406;29;20440;-84
2022/10/14 01:04:01;;;;;;;5.77;5.33;;;23.90;69.00;;;;;;4898051;29;20461;-83
2022/10/14 01:06:40;;;;;;;5.53;5.10;;;23.90;69.00;;;;;;4900115;29;20458;-84
2022/10/14 01:09:18;;;;;;;5.70;5.20;;;23.90;69.00;;;;;;4906676;29;20835;-85
2022/10/14 01:11:59;;;;;;;6.43;5.93;;;23.90;69.00;;;;;;4899465;29;20466;-84
2022/10/14 01:14:58;;;;;;;6.20;5.17;;;23.80;69.00;;;;;;4892563;29;20453;-85
2022/10/14 01:17:36;;;;;;;5.70;5.20;;;23.80;69.00;;;;;;4899562;29;20467;-85
2022/10/14 01:20:29;;;;;;;6.70;6.10;;;23.80;69.00;;;;;;4896381;29;20500;-83
2022/10/14 01:23:14;;;;;;;5.43;5.03;;;23.80;69.00;;;;;;4893137;29;20492;-84
2022/10/14 01:25:55;;;;;;;5.70;4.97;;;23.80;69.00;;;;;;4898474;29;20473;-82
2022/10/14 01:28:35;;;;;;;5.77;5.30;;;23.80;69.00;;;;;;4898408;29;20930;-84
2022/10/14 01:31:07;;;;;;;6.30;5.90;;;23.80;69.00;;;;;;4897978;29;20464;-84
2022/10/14 01:33:37;;;;;;;5.00;4.70;;;23.80;69.00;;;;;;4896668;29;20502;-85
2022/10/14 01:36:14;;;;;;;5.70;5.20;;;23.80;69.00;;;;;;4879626;29;20464;-83
2022/10/14 01:38:47;;;;;;;5.67;5.27;;;23.80;69.00;;;;;;4885144;29;20842;-83
2022/10/14 01:41:19;;;;;;;6.47;5.97;;;23.80;69.00;;;;;;4897526;29;20463;-83
2022/10/14 01:43:50;;;;;;;5.07;4.77;;;23.80;69.00;;;;;;4913660;29;20483;-85
2022/10/14 01:46:22;;;;;;;5.60;5.20;;;23.80;69.00;;;;;;4913458;29;20456;-84
2022/10/14 01:48:58;;;;;;;5.97;4.80;;;23.80;69.00;;;;;;4894424;29;20846;-84
2022/10/14 01:51:33;;;;;;;5.50;5.10;;;23.80;69.00;;;;;;4880127;29;20479;-83
2022/10/14 01:54:05;;;;;;;6.10;5.60;;;23.80;69.00;;;;;;4882741;29;20828;-85
2022/10/14 01:56:35;;;;;;;5.40;5.00;;;23.80;69.00;;;;;;4912809;29;20461;-84
2022/10/14 01:59:11;;;;;;;5.77;5.27;;;23.80;69.00;;;;;;4898340;29;20466;-84
2022/10/14 02:01:40;;;;;;;5.97;5.47;;;23.80;69.00;;;;;;4907912;29;20466;-84
2022/10/14 02:04:15;;;;;;;5.37;4.97;;;23.80;69.00;;;;;;4897800;29;20508;-84
2022/10/14 02:06:50;;;;;;;5.17;4.77;;;23.80;69.00;;;;;;4898853;29;20443;-84
2022/10/14 02:09:26;;;;;;;4.73;4.23;;;23.80;69.10;;;;;;4897101;29;20514;-84
2022/10/14 02:12:18;;;;;;;5.00;4.50;;;23.80;69.10;;;;;;4915435;29;20826;-83
2022/10/14 02:14:54;;;;;;;5.37;4.87;;;23.80;69.10;;;;;;4879385;29;20445;-85
2022/10/14 02:17:31;;;;;;;5.60;5.10;;;23.80;69.10;;;;;;4891706;29;20463;-84
2022/10/14 02:20:05;;;;;;;4.63;4.33;;;23.80;69.10;;;;;;4892833;29;20982;-85
2022/10/14 02:22:37;;;;;;;5.43;4.93;;;23.80;69.10;;;;;;4897232;29;20479;-84
2022/10/14 02:25:12;;;;;;;5.50;5.03;;;23.70;69.10;;;;;;4898533;29;20450;-84
2022/10/14 02:27:44;;;;;;;4.77;4.27;;;23.70;69.10;;;;;;4890057;29;20469;-84
2022/10/14 02:30:14;;;;;;;5.33;4.93;;;23.80;69.10;;;;;;4885059;29;20493;-84
2022/10/14 02:32:46;;;;;;;5.70;5.20;;;23.80;69.10;;;;;;4888259;29;20967;-84
2022/10/14 02:35:17;;;;;;;5.07;4.67;;;23.70;69.10;;;;;;4896404;29;20465;-85
2022/10/14 02:37:47;;;;;;;7.10;4.80;;;23.70;69.10;;;;;;4892065;29;20955;-84
2022/10/14 02:40:22;;;;;;;5.70;5.30;;;23.70;69.10;;;;;;4893275;29;20546;-83
2022/10/14 02:42:50;;;;;;;4.90;4.60;;;23.70;69.10;;;;;;4903455;29;20496;-83
2022/10/14 02:45:19;;;;;;;5.10;4.70;;;23.70;69.10;;;;;;4898100;29;20465;-84
2022/10/14 02:47:49;;;;;;;4.83;4.33;;;23.70;69.10;;;;;;4894134;29;20814;-84
2022/10/14 02:50:18;;;;;;;5.10;4.70;;;23.70;69.10;;;;;;4897612;29;20483;-83
2022/10/14 02:52:46;;;;;;;4.80;4.50;;;23.70;69.10;;;;;;4904463;29;20462;-84
2022/10/14 02:55:14;;;;;;;5.30;4.90;;;23.70;69.10;;;;;;4897340;29;20494;-84
2022/10/14 02:57:44;;;;;;;4.17;3.87;;;23.70;69.10;;;;;;4884178;29;20541;-83
2022/10/14 03:00:13;;;;;;;4.33;4.03;;;23.70;69.10;;;;;;4885122;29;20938;-84
2022/10/14 03:02:42;;;;;;;4.73;4.33;;;23.70;69.10;;;;;;4899151;29;20460;-82
2022/10/14 03:05:12;;;;;;;4.63;4.30;;;23.70;69.10;;;;;;4898697;29;20458;-83
2022/10/14 03:07:40;;;;;;;4.90;4.50;;;23.70;69.10;;;;;;4904455;29;20529;-83
2022/10/14 03:10:12;;;;;;;4.93;4.43;;;23.70;69.10;;;;;;4909079;29;20479;-84
2022/10/14 03:12:40;;;;;;;4.83;4.43;;;23.70;69.10;;;;;;4921673;29;20943;-83
2022/10/14 03:15:17;;;;;;;5.00;4.60;;;23.70;69.10;;;;;;4908155;29;20475;-83
2022/10/14 03:17:47;;;;;;;4.97;4.67;;;23.70;69.10;;;;;;4896507;29;20990;-83
2022/10/14 03:20:19;;;;;;;5.37;4.97;;;23.70;69.10;;;;;;4902854;29;20808;-83
2022/10/14 03:22:53;;;;;;;4.20;3.90;;;23.70;69.10;;;;;;4902268;29;20494;-83
2022/10/14 03:25:23;;;;;;;5.40;5.00;;;23.70;69.10;;;;;;4899810;29;20947;-83
2022/10/14 03:28:02;;;;;;;4.50;4.20;;;23.70;69.10;;;;;;4903899;29;20437;-83
2022/10/14 03:30:43;;;;;;;4.77;4.37;;;23.70;69.10;;;;;;4902139;29;20471;-84
2022/10/14 03:33:16;;;;;;;4.90;4.50;;;23.70;69.20;;;;;;4902513;29;20547;-84
2022/10/14 03:36:15;;;;;;;5.10;4.60;;;23.70;69.10;;;;;;4893573;29;20471;-84
2022/10/14 03:38:46;;;;;;;3.80;3.50;;;23.70;69.10;;;;;;4915667;29;20528;-83
2022/10/14 03:41:34;;;;;;;5.73;4.17;;;23.70;69.10;;;;;;4899330;29;20464;-84
2022/10/14 03:44:03;;;;;;;4.37;4.03;;;23.70;69.10;;;;;;4902546;29;20862;-84
2022/10/14 03:46:32;;;;;;;4.83;4.43;;;23.70;69.10;;;;;;4904419;29;20508;-84
2022/10/14 03:49:01;;;;;;;5.07;4.70;;;23.70;69.10;;;;;;4902466;29;20467;-83
2022/10/14 03:51:34;;;;;;;4.60;4.30;;;23.70;69.10;;;;;;4902612;29;20471;-84
2022/10/14 03:54:11;;;;;;;4.50;4.20;;;23.60;69.10;;;;;;4902032;29;20547;-81
2022/10/14 03:56:40;;;;;;;4.60;4.20;;;23.70;69.10;;;;;;4902916;29;20468;-84
2022/10/14 03:59:08;;;;;;;5.43;4.60;;;23.60;69.10;;;;;;4896900;29;20472;-85
2022/10/14 04:01:40;;;;;;;5.70;5.20;;;23.60;69.10;;;;;;4898814;29;20767;-83
2022/10/14 04:04:19;;;;;;;4.83;4.43;;;23.60;69.10;;;;;;4899390;29;20487;-84
2022/10/14 04:06:49;;;;;;;4.63;4.20;;;23.60;69.10;;;;;;4899264;29;20530;-83
2022/10/14 04:09:20;;;;;;;3.77;3.47;;;23.60;69.10;;;;;;4898703;29;20455;-82
2022/10/14 04:11:49;;;;;;;4.33;4.03;;;23.60;69.10;;;;;;4912355;29;20870;-83
2022/10/14 04:14:56;;;;;;;4.23;3.93;;;23.60;69.10;;;;;;4904877;29;20544;-82
2022/10/14 04:17:26;;;;;;;4.00;3.77;;;23.60;69.10;;;;;;4911137;29;20530;-83
2022/10/14 04:19:56;;;;;;;4.20;3.90;;;23.60;69.10;;;;;;4897279;29;20481;-83
2022/10/14 04:22:26;;;;;;;4.60;4.20;;;23.60;69.10;;;;;;4894301;29;20548;-83
2022/10/14 04:24:55;;;;;;;4.30;3.90;;;23.60;69.10;;;;;;4911797;29;20490;-83
2022/10/14 04:27:24;;;;;;;4.23;3.93;;;23.60;69.10;;;;;;4901272;29;20518;-82
2022/10/14 04:30:00;;;;;;;3.63;3.43;;;23.60;69.10;;;;;;4890960;29;20524;-83
2022/10/14 04:32:38;;;;;;;4.67;4.33;;;23.60;69.10;;;;;;4890820;29;20563;-84
2022/10/14 04:35:08;;;;;;;3.73;3.43;;;23.60;69.10;;;;;;4895701;29;20478;-83
2022/10/14 04:37:40;;;;;;;4.37;3.97;;;23.60;69.10;;;;;;4895538;29;20519;-82
2022/10/14 04:40:13;;;;;;;4.40;4.10;;;23.60;69.10;;;;;;4899037;29;20544;-83
2022/10/14 04:42:46;;;;;;;4.73;4.30;;;23.60;69.10;;;;;;4912254;29;20476;-86
2022/10/14 04:45:25;;;;;;;3.93;3.63;;;23.60;69.10;;;;;;4914140;29;20478;-86
2022/10/14 04:48:01;;;;;;;4.20;3.90;;;23.60;69.10;;;;;;4892934;29;20464;-87
2022/10/14 04:50:29;;;;;;;4.33;3.93;;;23.60;69.10;;;;;;4893562;29;20472;-87
2022/10/14 04:53:17;;;;;;;4.57;4.20;;;23.60;69.10;;;;;;4902107;29;20540;-86
2022/10/14 04:56:02;;;;;;;4.30;4.00;;;23.60;69.20;;;;;;4895822;29;20529;-87
2022/10/14 04:58:30;;;;;;;4.00;3.70;;;23.60;69.20;;;;;;4895243;29;20470;-89
2022/10/14 05:00:58;;;;;;;3.80;3.50;;;23.60;69.20;;;;;;4897069;29;20495;-86
2022/10/14 05:03:34;;;;;;;3.70;3.40;;;23.60;69.20;;;;;;4900109;29;20485;-88
2022/10/14 05:06:04;;;;;;;4.73;4.43;;;23.60;69.20;;;;;;4909616;29;20473;-87
2022/10/14 05:08:35;;;;;;;4.70;4.40;;;23.60;69.20;;;;;;4896150;29;20475;-88
2022/10/14 05:11:07;;;;;;;4.57;4.27;;;23.60;69.20;;;;;;4892049;29;20465;-87
2022/10/14 05:13:41;;;;;;;4.00;3.70;;;23.60;69.20;;;;;;4891920;29;20464;-86
2022/10/14 05:16:09;;;;;;;4.40;4.10;;;23.60;69.20;;;;;;4887344;29;20463;-88
2022/10/14 05:18:39;;;;;;;5.17;4.03;;;23.60;69.20;;;;;;4894825;29;20501;-88
2022/10/14 05:21:12;;;;;;;4.63;4.33;;;23.60;69.20;;;;;;4895768;29;20465;-88
2022/10/14 05:23:50;;;;;;;6.47;4.57;;;23.60;69.20;;;;;;4891821;29;20483;-87
2022/10/14 05:26:18;;;;;;;4.10;3.80;;;23.60;69.20;;;;;;4906473;29;20476;-88
2022/10/14 05:28:47;;;;;;;4.20;3.90;;;23.60;69.30;;;;;;4895772;29;20469;-88
2022/10/14 05:31:15;;;;;;;4.03;3.60;;;23.60;69.30;;;;;;4896361;29;20555;-87
2022/10/14 05:33:51;;;;;;;4.77;4.47;;;23.50;69.30;;;;;;4894756;29;20497;-85
2022/10/14 05:36:19;;;;;;;3.90;3.60;;;23.60;69.30;;;;;;4903946;29;20551;-87
2022/10/14 05:38:49;;;;;;;4.83;3.63;;;23.50;69.30;;;;;;4910753;29;20566;-84
2022/10/14 05:41:21;;;;;;;4.70;4.40;;;23.50;69.30;;;;;;4898801;29;20468;-88
2022/10/14 05:43:49;;;;;;;4.30;3.83;;;23.60;69.30;;;;;;4896672;29;20456;-88
2022/10/14 05:46:18;;;;;;;4.90;4.53;;;23.50;69.30;;;;;;4892258;29;20508;-88
2022/10/14 05:48:52;;;;;;;6.00;3.87;;;23.50;69.30;;;;;;4896237;29;20467;-88
2022/10/14 05:51:21;;;;;;;4.17;3.87;;;23.50;69.30;;;;;;4889872;29;20460;-86
2022/10/14 05:53:55;;;;;;;4.83;3.60;;;23.50;69.30;;;;;;4896252;29;20490;-87
2022/10/14 05:56:24;;;;;;;14.77;5.57;;;23.50;69.30;;;;;;4892277;29;20500;-83
2022/10/14 05:58:52;;;;;;;12.90;4.93;;;23.50;71.40;;;;;;4902458;29;21011;-83
2022/10/14 06:01:21;;;;;;;6.07;4.83;;;23.50;71.60;;;;;;4897386;29;20511;-85
2022/10/14 06:03:50;;;;;;;7.30;4.57;;;23.50;71.30;;;;;;4899177;29;20488;-84
2022/10/14 06:06:19;;;;;;;6.57;5.30;;;23.60;71.10;;;;;;4896461;29;20492;-84
2022/10/14 06:08:47;;;;;;;6.63;4.90;;;23.50;71.10;;;;;;4897839;29;20574;-86
2022/10/14 06:11:16;;;;;;;5.50;3.97;;;23.60;71.30;;;;;;4915697;29;20500;-84
2022/10/14 06:13:45;;;;;;;9.23;4.90;;;23.60;71.60;;;;;;4893741;29;20457;-85
2022/10/14 06:16:13;;;;;;;9.50;5.10;;;23.60;71.00;;;;;;4896034;29;20814;-84
2022/10/14 06:18:41;;;;;;;5.10;4.70;;;23.60;70.90;;;;;;4895939;29;20484;-86
2022/10/14 06:21:11;;;;;;;6.57;5.07;;;23.60;70.70;;;;;;4909481;29;20479;-84
2022/10/14 06:23:39;;;;;;;5.73;4.53;;;23.60;70.60;;;;;;4896901;29;20469;-83
2022/10/14 06:26:08;;;;;;;5.20;4.70;;;23.60;70.60;;;;;;4897120;29;20483;-84
2022/10/14 06:28:38;;;;;;;10.03;5.13;;;23.60;70.60;;;;;;4897652;29;20533;-84
2022/10/14 06:31:06;;;;;;;8.47;4.97;;;23.50;70.50;;;;;;4897195;29;20844;-84
2022/10/14 06:33:34;;;;;;;8.40;4.73;;;23.60;70.50;;;;;;4888233;29;20523;-85
2022/10/14 06:36:04;;;;;;;5.03;4.53;;;23.60;70.50;;;;;;4891710;29;20470;-86
2022/10/14 06:38:32;;;;;;;6.97;4.83;;;23.50;70.40;;;;;;4892623;29;20968;-84
2022/10/14 06:41:00;;;;;;;6.83;5.37;;;23.60;70.40;;;;;;4888537;29;20475;-74
2022/10/14 06:43:29;;;;;;;6.23;4.33;;;23.60;70.50;;;;;;4893765;29;20457;-75
2022/10/14 06:45:58;;;;;;;7.00;4.70;;;23.60;70.80;;;;;;4891404;29;20477;-76
2022/10/14 06:48:27;;;;;;;5.97;5.30;;;23.60;70.80;;;;;;4895394;29;20459;-75
2022/10/14 06:50:55;;;;;;;6.40;5.07;;;23.60;70.80;;;;;;4892686;29;20469;-75
2022/10/14 06:53:23;;;;;;;5.40;4.47;;;23.70;70.70;;;;;;4894749;29;20457;-77
2022/10/14 06:55:58;;;;;;;7.27;4.67;;;23.70;70.70;;;;;;4891876;29;20458;-76
2022/10/14 06:58:26;;;;;;;9.80;4.70;;;23.70;70.70;;;;;;4893332;29;20459;-75
2022/10/14 07:00:54;;;;;;;5.93;4.67;;;23.70;70.70;;;;;;4891903;29;20457;-77
2022/10/14 07:03:23;;;;;;;6.60;4.60;;;23.80;70.70;;;;;;4892456;29;20992;-74
2022/10/14 07:05:52;;;;;;;8.10;4.73;;;23.80;70.70;;;;;;4891550;29;20473;-74
2022/10/14 07:08:20;;;;;;;4.97;4.57;;;23.80;70.50;;;;;;4895000;29;20451;-74
2022/10/14 07:10:48;;;;;;;5.40;4.40;;;23.80;70.50;;;;;;4895067;29;20454;-76
2022/10/14 07:13:16;;;;;;;5.50;4.20;;;23.80;70.40;;;;;;4895482;29;20455;-79
2022/10/14 07:15:47;;;;;;;7.30;4.30;;;23.90;70.40;;;;;;4893994;29;21197;-75
2022/10/14 07:18:16;;;;;;;4.10;3.73;;;23.90;70.40;;;;;;4892450;29;20485;-74
2022/10/14 07:20:45;;;;;;;5.30;4.43;;;23.90;70.30;;;;;;4892683;29;20479;-74
2022/10/14 07:23:13;;;;;;;4.70;4.00;;;23.90;70.30;;;;;;4893960;29;20459;-75
2022/10/14 07:25:41;;;;;;;5.30;3.93;;;23.90;70.30;;;;;;4890577;29;20500;-75
2022/10/14 07:28:09;;;;;;;6.37;4.90;;;24.00;70.30;;;;;;4894211;29;20468;-76
2022/10/14 07:30:38;;;;;;;4.70;4.20;;;24.00;70.20;;;;;;4893620;29;20496;-75
2022/10/14 07:33:06;;;;;;;5.23;4.07;;;24.00;70.20;;;;;;4895260;29;20455;-76
2022/10/14 07:35:37;;;;;;;5.00;4.50;;;24.00;70.10;;;;;;4894270;29;20532;-76
2022/10/14 07:38:06;;;;;;;4.60;4.13;;;24.00;70.10;;;;;;4897089;29;20446;-76
2022/10/14 07:40:34;;;;;;;4.90;4.50;;;24.00;70.00;;;;;;4899136;29;21412;-75
2022/10/14 07:43:03;;;;;;;6.23;4.90;;;24.10;70.00;;;;;;4886541;29;20455;-74
2022/10/14 07:45:34;;;;;;;6.43;3.80;;;24.10;70.00;;;;;;4899171;29;20482;-76
2022/10/14 07:48:02;;;;;;;6.37;4.03;;;24.10;69.90;;;;;;4896783;29;20474;-76
2022/10/14 07:50:31;;;;;;;6.20;4.30;;;24.10;69.90;;;;;;4896518;29;20472;-79
2022/10/14 07:52:59;;;;;;;4.23;3.60;;;24.10;69.80;;;;;;4896545;29;20465;-78
2022/10/14 07:55:30;;;;;;;4.30;3.90;;;24.10;69.80;;;;;;4899922;29;20979;-75
2022/10/14 07:57:58;;;;;;;4.90;3.70;;;24.10;69.80;;;;;;4893532;29;20534;-75
2022/10/14 08:00:26;;;;;;;5.90;4.27;;;24.10;69.80;;;;;;4895015;29;20500;-77
2022/10/14 08:02:55;;;;;;;3.83;3.53;;;24.10;69.70;;;;;;4897128;29;20482;-76
2022/10/14 08:05:23;;;;;;;5.67;3.70;;;24.20;69.70;;;;;;4894200;29;20561;-76
2022/10/14 08:08:07;;;;;;;4.93;3.70;;;24.20;69.60;;;;;;4894377;29;20451;-76
2022/10/14 08:10:37;;;;;;;4.33;3.73;;;24.10;69.70;;;;;;4896973;29;20463;-75
2022/10/14 08:13:06;;;;;;;3.90;3.50;;;24.20;69.60;;;;;;4898430;29;20449;-76
2022/10/14 08:15:37;;;;;;;4.80;4.00;;;24.20;69.60;;;;;;4894753;29;20450;-76
2022/10/14 08:18:06;;;;;;;3.30;3.03;;;24.20;69.60;;;;;;4896808;29;20488;-75
2022/10/14 08:20:34;;;;;;;4.53;4.13;;;24.20;69.50;;;;;;4894106;29;20983;-76
2022/10/14 08:23:03;;;;;;;4.63;3.70;;;24.20;69.50;;;;;;4897932;29;20462;-76
2022/10/14 08:25:31;;;;;;;6.00;3.20;;;24.20;69.50;;;;;;4889280;29;20474;-77
2022/10/14 08:28:01;;;;;;;4.27;3.90;;;24.20;69.40;;;;;;4894736;29;20463;-75
2022/10/14 08:30:29;;;;;;;4.20;3.50;;;24.20;69.40;;;;;;4890136;29;20944;-74
2022/10/14 08:32:58;;;;;;;4.00;3.63;;;24.20;69.40;;;;;;4893625;29;20845;-76
2022/10/14 08:35:27;;;;;;;4.40;3.40;;;24.20;69.40;;;;;;4891665;29;26032;-76
2022/10/14 08:37:57;;;;;;;4.00;3.70;;;24.20;69.30;;;;;;4895260;29;20572;-76
2022/10/14 08:40:27;;;;;;;3.40;3.10;;;24.30;69.30;;;;;;4895081;29;20529;-75
2022/10/14 08:43:03;;;;;;;4.17;3.87;;;24.30;69.30;;;;;;4896577;29;20576;-73
2022/10/14 08:45:35;;;;;;;3.53;3.23;;;24.30;69.20;;;;;;4893068;29;20477;-74
2022/10/14 08:48:11;;;;;;;3.87;3.40;;;24.30;69.10;;;;;;4897184;29;20499;-76
2022/10/14 08:50:46;;;;;;;4.10;3.47;;;24.30;69.10;;;;;;4892701;29;20460;-76
2022/10/14 08:53:17;;;;;;;3.43;3.13;;;24.40;69.10;;;;;;4897391;29;20462;-76
2022/10/14 08:55:49;;;;;;;4.03;3.57;;;24.40;69.00;;;;;;4894493;29;20470;-75
2022/10/14 08:58:24;;;;;;;5.70;3.43;;;24.40;69.00;;;;;;4896263;29;20471;-76
2022/10/14 09:00:55;;;;;;;6.13;3.63;;;24.40;69.00;;;;;;4893902;29;20989;-77
2022/10/14 09:03:31;;;;;;;3.13;2.93;;;24.40;68.90;;;;;;4896010;29;20811;-75
2022/10/14 09:06:03;;;;;;;5.47;3.23;;;24.40;68.90;;;;;;4895359;29;20566;-75
2022/10/14 09:08:34;;;;;;;7.10;3.17;;;24.40;68.90;;;;;;4895590;29;20549;-76
2022/10/14 09:11:02;;;;;;;3.43;3.23;;;24.40;68.90;;;;;;4897630;29;20461;-75
2022/10/14 09:13:36;;;;;;;3.80;3.50;;;24.40;68.90;;;;;;4893155;29;20483;-76
2022/10/14 09:16:13;;;;;;;3.70;3.40;;;24.40;68.90;;;;;;4897052;29;20939;-76
2022/10/14 09:18:47;;;;;;;3.87;3.27;;;24.40;68.70;;;;;;4894489;29;20491;-76
2022/10/14 09:21:31;;;;;;;3.33;3.00;;;24.40;68.60;;;;;;4895275;29;20463;-76
2022/10/14 09:24:21;;;;;;;2.87;2.67;;;24.40;68.70;;;;;;4893876;29;20459;-77
2022/10/14 09:26:52;;;;;;;2.93;2.73;;;24.50;68.80;;;;;;4893350;29;20489;-79
2022/10/14 09:29:25;;;;;;;4.13;3.40;;;24.50;68.80;;;;;;4892862;29;20556;-80
2022/10/14 09:31:57;;;;;;;5.23;3.40;;;24.50;68.90;;;;;;4895537;29;20451;-77
2022/10/14 09:34:30;;;;;;;3.10;2.90;;;24.50;68.80;;;;;;4895139;29;20464;-79
2022/10/14 09:37:10;;;;;;;3.43;3.13;;;24.50;68.70;;;;;;4892272;29;20469;-78
2022/10/14 09:39:39;;;;;;;3.63;3.13;;;24.50;68.70;;;;;;4893057;29;20483;-79
2022/10/14 09:42:15;;;;;;;2.97;2.70;;;24.50;68.70;;;;;;4894358;29;20454;-77
2022/10/14 09:44:45;;;;;;;4.17;3.80;;;24.50;68.70;;;;;;4895230;29;20481;-77
2022/10/14 09:47:17;;;;;;;3.77;3.47;;;24.50;68.70;;;;;;4895926;29;20565;-79
2022/10/14 09:49:47;;;;;;;3.60;2.93;;;24.50;68.70;;;;;;4893448;29;20552;-77
2022/10/14 09:52:22;;;;;;;2.90;2.70;;;24.50;68.60;;;;;;4894194;29;20456;-79
2022/10/14 09:54:55;;;;;;;4.30;3.07;;;24.50;68.70;;;;;;4895064;29;20827;-80
2022/10/14 09:57:24;;;;;;;4.30;3.10;;;24.50;68.70;;;;;;4896207;29;20937;-80
2022/10/14 09:59:57;;;;;;;3.77;3.47;;;24.50;68.60;;;;;;4894703;29;20471;-81
2022/10/14 10:02:37;;;;;;;2.93;2.73;;;24.50;68.60;;;;;;4891346;29;20477;-81
2022/10/14 10:05:23;;;;;;;3.23;2.93;;;24.50;68.60;;;;;;4891567;29;20535;-81
2022/10/14 10:08:04;;;;;;;3.20;3.00;;;24.50;68.60;;;;;;4892270;29;20478;-79
2022/10/14 10:10:34;;;;;;;3.20;3.00;;;24.50;68.60;;;;;;4895721;29;20971;-79
2022/10/14 10:13:02;;;;;;;3.10;2.90;;;24.60;68.50;;;;;;4894572;29;20459;-81
2022/10/14 10:15:32;;;;;;;2.93;2.73;;;24.60;68.50;;;;;;4908287;29;20472;-80
2022/10/14 10:18:00;;;;;;;4.17;3.03;;;24.60;68.50;;;;;;4895967;29;20866;-82
2022/10/14 10:20:32;;;;;;;3.10;2.90;;;24.60;68.40;;;;;;4892720;29;21040;-79
2022/10/14 10:23:24;;;;;;;4.10;3.10;;;24.60;68.40;;;;;;4890528;29;20801;-77
2022/10/14 10:25:53;;;;;;;2.57;2.40;;;24.60;68.40;;;;;;4894285;29;21293;-79
2022/10/14 10:28:30;;;;;;;2.70;2.50;;;24.60;68.40;;;;;;4893853;29;20479;-78
2022/10/14 10:31:11;;;;;;;3.10;2.80;;;24.60;68.30;;;;;;4895644;29;20454;-80
2022/10/14 10:33:48;;;;;;;3.07;2.73;;;24.60;68.30;;;;;;4890232;29;20524;-79
2022/10/14 10:36:22;;;;;;;2.60;2.43;;;24.60;68.10;;;;;;4893634;29;20460;-78
2022/10/14 10:38:59;;;;;;;2.87;2.63;;;24.60;68.00;;;;;;4893520;29;20506;-78
2022/10/14 10:41:45;;;;;;;2.30;2.20;;;24.60;68.00;;;;;;4897842;29;20555;-79
2022/10/14 10:44:39;;;;;;;2.67;2.47;;;24.60;67.90;;;;;;4890009;29;20457;-78
2022/10/14 10:47:21;;;;;;;3.30;2.73;;;24.60;67.90;;;;;;4894637;29;20506;-79
2022/10/14 10:50:09;;;;;;;3.13;2.60;;;24.60;67.80;;;;;;4893346;29;20523;-79
2022/10/14 10:52:51;;;;;;;2.80;2.50;;;24.60;67.80;;;;;;4895293;29;20801;-79
2022/10/14 10:55:30;;;;;;;3.00;2.80;;;24.50;67.90;;;;;;4896488;29;20645;-80
2022/10/14 10:58:04;;;;;;;2.43;2.33;;;24.50;67.90;;;;;;4887845;29;20464;-80
2022/10/14 11:00:45;;;;;;;3.03;2.83;;;24.50;67.90;;;;;;4891432;29;20562;-80
2022/10/14 11:03:36;;;;;;;3.10;2.63;;;24.50;67.90;;;;;;4893692;29;20470;-80
2022/10/14 11:06:10;;;;;;;2.90;2.60;;;24.50;67.90;;;;;;4905154;29;20969;-80
2022/10/14 11:12:06;;;;;;;2.80;2.60;;;24.60;67.60;;;;;;4905390;29;20952;-81
2022/10/14 11:14:49;;;;;;;2.30;2.20;;;24.60;67.60;;;;;;4898483;29;20460;-80
2022/10/14 11:17:25;;;;;;;4.57;2.60;;;24.60;67.50;;;;;;4898114;29;20552;-80
2022/10/14 11:20:04;;;;;;;2.30;2.10;;;24.60;67.50;;;;;;4899025;29;20501;-80
2022/10/14 11:22:52;;;;;;;2.50;2.30;;;24.60;67.50;;;;;;4897218;29;20450;-80
2022/10/14 11:25:25;;;;;;;2.37;2.27;;;24.60;67.60;;;;;;4892506;29;20565;-80
2022/10/14 11:28:02;;;;;;;2.80;2.60;;;24.60;67.60;;;;;;4895871;29;20930;-80
2022/10/14 11:30:43;;;;;;;2.13;2.03;;;24.50;67.60;;;;;;4898530;29;20455;-80
2022/10/14 11:33:26;;;;;;;3.33;3.03;;;24.50;67.60;;;;;;4898872;29;20470;-78
2022/10/14 11:36:03;;;;;;;3.20;2.90;;;24.50;67.60;;;;;;4896622;29;20463;-81
2022/10/14 11:38:47;;;;;;;2.47;2.33;;;24.50;67.60;;;;;;4895964;29;20463;-80
2022/10/14 11:41:25;;;;;;;2.73;2.60;;;24.50;67.60;;;;;;4894940;29;20454;-81
2022/10/14 11:43:59;;;;;;;4.03;2.40;;;24.50;67.60;;;;;;4894571;29;20457;-81
2022/10/14 11:46:35;;;;;;;2.20;2.10;;;24.50;67.60;;;;;;4894001;29;20469;-81
2022/10/14 11:49:12;;;;;;;2.23;2.13;;;24.50;67.60;;;;;;4894101;29;20563;-82
2022/10/14 11:51:47;;;;;;;2.47;2.27;;;24.50;67.60;;;;;;4893781;29;20458;-81
2022/10/14 11:54:20;;;;;;;2.00;1.90;;;24.50;67.50;;;;;;4893864;29;20976;-81
2022/10/14 11:56:54;;;;;;;2.30;1.87;;;24.50;67.50;;;;;;4895383;29;20473;-81
2022/10/14 11:59:36;;;;;;;2.27;2.13;;;24.50;67.50;;;;;;4895452;29;20464;-81
2022/10/14 12:02:19;;;;;;;2.30;2.20;;;24.50;67.50;;;;;;4894963;29;20471;-81
2022/10/14 12:04:56;;;;;;;2.33;2.17;;;24.50;67.40;;;;;;4892824;29;20461;-80
2022/10/14 12:07:31;;;;;;;2.10;2.00;;;24.50;67.50;;;;;;4897458;29;20953;-80
2022/10/14 12:10:04;;;;;;;2.03;1.83;;;24.50;67.50;;;;;;4893907;29;20453;-81
2022/10/14 12:12:35;;;;;;;2.00;1.90;;;24.50;67.40;;;;;;4899090;29;20556;-80
2022/10/14 12:15:07;;;;;;;2.23;2.10;;;24.50;67.50;;;;;;4899213;29;20453;-80
2022/10/14 12:17:43;;;;;;;2.43;2.23;;;24.50;67.50;;;;;;4895278;29;20460;-78
2022/10/14 12:20:22;;;;;;;2.80;1.90;;;24.50;67.60;;;;;;4896349;29;20478;-80
2022/10/14 12:22:53;;;;;;;2.00;1.80;;;24.40;68.20;;;;;;4895994;29;20578;-79
2022/10/14 12:25:24;;;;;;;2.47;2.30;;;24.40;68.30;;;;;;4893989;29;20458;-79
2022/10/14 12:27:54;;;;;;;1.77;1.67;;;24.40;68.40;;;;;;4894297;29;20479;-78
2022/10/14 12:30:35;;;;;;;2.30;2.10;;;24.40;68.40;;;;;;4897679;29;20959;-78
2022/10/14 12:33:05;;;;;;;2.13;2.03;;;24.40;68.50;;;;;;4898014;29;20524;-81
2022/10/14 12:35:49;;;;;;;1.73;1.63;;;24.40;68.60;;;;;;4888113;29;20457;-78
2022/10/14 12:38:20;;;;;;;1.70;1.60;;;24.40;68.60;;;;;;4896672;29;20461;-82
2022/10/14 12:40:48;;;;;;;2.87;2.20;;;24.40;68.70;;;;;;4890120;29;20882;-80
2022/10/14 12:43:26;;;;;;;3.37;2.13;;;24.40;68.70;;;;;;4893842;29;20463;-81
2022/10/14 12:46:01;;;;;;;2.83;2.47;;;24.40;68.80;;;;;;4897319;29;20457;-81
2022/10/14 12:48:32;;;;;;;2.77;2.40;;;24.40;68.70;;;;;;4896791;29;20815;-79
2022/10/14 12:51:11;;;;;;;3.40;2.40;;;24.40;68.70;;;;;;4894508;29;20470;-75
2022/10/14 12:53:50;;;;;;;2.23;2.03;;;24.40;68.70;;;;;;4893452;29;20501;-73
2022/10/14 12:56:34;;;;;;;2.70;2.13;;;24.40;68.60;;;;;;4896623;29;20460;-77
2022/10/14 12:59:05;;;;;;;2.27;2.03;;;24.50;68.60;;;;;;4894827;29;20488;-79
2022/10/14 13:01:37;;;;;;;2.73;1.87;;;24.50;68.60;;;;;;4896833;29;20545;-80
2022/10/14 13:04:07;;;;;;;2.00;1.90;;;24.50;68.40;;;;;;4890856;29;20464;-81
2022/10/14 13:06:42;;;;;;;2.73;1.90;;;24.50;68.40;;;;;;4890272;29;20449;-80
2022/10/14 13:09:32;;;;;;;3.20;2.27;;;24.60;68.30;;;;;;4896720;29;20478;-81
2022/10/14 13:12:42;;;;;;;2.30;2.10;;;24.60;68.30;;;;;;4896749;29;20534;-80
2022/10/14 13:15:59;;;;;;;1.70;1.60;;;24.60;68.30;;;;;;4896542;29;20458;-76
2022/10/14 13:18:36;;;;;;;1.70;1.60;;;24.60;68.30;;;;;;4892715;29;20471;-85
2022/10/14 13:21:06;;;;;;;2.17;1.97;;;24.60;68.30;;;;;;4894079;29;20516;-87